»·PEaware :: SWA310 KSJC-KRNO

SWA310 :: KSJC-KRNO

FLIGHT INFORMATION

Flight Status: Arrived
Operator:
Southwest Airlines
More flights by this operator :: More flights under this callsign
Pilot: Brandon G. (13)
Aircraft: BOEING 737-800
(B738)
More flights by this aircraft type
Origin: KSJC Mineta San Jose Intl
United States
Destination: KRNO Reno/Tahoe Intl
United States
More flights between these airports :: More routes between these airports
Route: LOUPE4 BMRNG SAC SIER3
File this flight plan on PilotEdge
Remarks:
Altitude:
(Current/Filed)
29,000ft
Speed:
(Current/Filed)
425kts
Departed: 01-Jan-18 05:49 PM
Arrived: 01-Jan-18 06:29 PM
Distance/Time
Traveled:
164nm/0:39
Distance/Time
To Go:
Arrived

Flight Plot

Page will automatically refresh every two minutes.

Flight plan parsing failed; only flown route is shown


Map Options




Map Legend


Flown Route
Filed Route
Departure Airport
Arrival Airport
Navaid (VOR, NDB)
Fix

Horizontal Profiles

Position Reports

Time Latitude Longitude Heading Altitude Ground
Speed
01-Jan-18 17:24 37.364694 -121.924991 48 48ft 0kts
01-Jan-18 17:25 37.364694 -121.924991 48 48ft 0kts
01-Jan-18 17:26 37.364694 -121.924991 48 48ft 0kts
01-Jan-18 17:27 37.364694 -121.924991 48 48ft 0kts
01-Jan-18 17:28 37.364694 -121.924991 48 48ft 0kts
01-Jan-18 17:29 37.364694 -121.924991 48 48ft 0kts
01-Jan-18 17:30 37.364694 -121.924991 48 48ft 0kts
01-Jan-18 17:31 37.364694 -121.924991 48 48ft 0kts
01-Jan-18 17:32 37.364694 -121.924991 48 48ft 0kts
01-Jan-18 17:33 37.364694 -121.924991 48 48ft 0kts
01-Jan-18 17:34 37.364694 -121.924991 48 48ft 0kts
01-Jan-18 17:35 37.364694 -121.924991 48 48ft 0kts
01-Jan-18 17:36 37.364694 -121.924991 48 48ft 0kts
01-Jan-18 17:37 37.364694 -121.924991 48 48ft 0kts
01-Jan-18 17:38 37.364694 -121.924991 48 48ft 0kts
01-Jan-18 17:39 37.364694 -121.924991 48 48ft 0kts
01-Jan-18 17:40 37.364694 -121.924991 48 48ft 0kts
01-Jan-18 17:41 37.364694 -121.924991 48 48ft 0kts
01-Jan-18 17:42 37.364694 -121.924991 48 48ft 0kts
01-Jan-18 17:43 37.364694 -121.924991 48 48ft 0kts
01-Jan-18 17:44 37.364694 -121.924991 48 48ft 0kts
01-Jan-18 17:45 37.364694 -121.924991 48 48ft 0kts
01-Jan-18 17:46 37.364694 -121.924991 48 48ft 0kts
01-Jan-18 17:47 37.364688 -121.924997 48 48ft 1kts
01-Jan-18 17:48 37.364768 -121.925555 144 47ft 0kts
01-Jan-18 17:49 37.364768 -121.925555 144 47ft 0kts
01-Jan-18 17:50 37.364745 -121.925537 150 47ft 0kts
01-Jan-18 17:51 37.363469 -121.924886 140 50ft 15kts
01-Jan-18 17:52 37.358071 -121.918960 139 57ft 36kts
01-Jan-18 17:53 37.353135 -121.914421 222 64ft 0kts
01-Jan-18 17:54 37.353093 -121.914472 224 64ft 3kts
01-Jan-18 17:55 37.355809 -121.919179 318 62ft 95kts
01-Jan-18 17:56 37.386792 -121.959091 302 2311ft 198kts
01-Jan-18 17:57 37.419977 -121.931492 101 3917ft 279kts
01-Jan-18 17:58 37.375433 -121.857984 136 7253ft 278kts
01-Jan-18 17:59 37.318876 -121.791559 151 10670ft 306kts
01-Jan-18 18:00 37.247829 -121.820197 251 14017ft 327kts
01-Jan-18 18:01 37.292160 -121.904160 336 17232ft 353kts
01-Jan-18 18:02 37.379622 -121.945214 347 20152ft 372kts
01-Jan-18 18:03 37.480255 -121.954156 354 22943ft 390kts
01-Jan-18 18:04 37.587199 -121.963230 353 25556ft 407kts
01-Jan-18 18:05 37.697243 -121.926353 19 27931ft 431kts
01-Jan-18 18:06 37.809892 -121.869494 19 29215ft 453kts
01-Jan-18 18:07 37.930324 -121.809053 19 29219ft 485kts
01-Jan-18 18:08 38.049249 -121.749392 19 29210ft 483kts
01-Jan-18 18:09 38.167461 -121.690127 19 29211ft 482kts
01-Jan-18 18:10 38.291333 -121.628027 19 29216ft 482kts
01-Jan-18 18:11 38.400367 -121.573380 19 29225ft 482kts
01-Jan-18 18:12 38.497549 -121.485763 45 29233ft 488kts
01-Jan-18 18:13 38.590347 -121.361975 44 29223ft 487kts
01-Jan-18 18:14 38.676474 -121.249449 44 29220ft 488kts
01-Jan-18 18:15 38.764665 -121.134452 44 29227ft 488kts
01-Jan-18 18:16 38.858627 -121.012135 43 29230ft 487kts
01-Jan-18 18:17 38.952491 -120.890083 42 27749ft 473kts
01-Jan-18 18:18 39.041129 -120.775001 41 25547ft 441kts
01-Jan-18 18:19 39.121838 -120.670348 41 23526ft 430kts
01-Jan-18 18:20 39.204418 -120.563380 42 21425ft 416kts
01-Jan-18 18:21 39.284008 -120.460427 42 19402ft 403kts
01-Jan-18 18:22 39.361220 -120.360646 42 17285ft 390kts
01-Jan-18 18:23 39.428460 -120.258649 55 16011ft 377kts
01-Jan-18 18:24 39.494140 -120.154048 43 16014ft 378kts
01-Jan-18 18:25 39.563992 -120.064291 43 15912ft 310kts
01-Jan-18 18:26 39.621162 -119.990491 43 14280ft 284kts
01-Jan-18 18:27 39.676495 -119.920656 43 12338ft 274kts
01-Jan-18 18:28 39.729447 -119.854649 49 10593ft 261kts
01-Jan-18 18:29 39.725023 -119.775414 141 8776ft 228kts
01-Jan-18 18:30 39.668932 -119.760648 171 7929ft 183kts
01-Jan-18 18:31 39.621918 -119.766462 187 7165ft 174kts
01-Jan-18 18:32 39.574080 -119.769091 178 5861ft 170kts
01-Jan-18 18:33 39.529384 -119.769087 178 4842ft 154kts
01-Jan-18 18:34 39.496207 -119.769262 179 4407ft 41kts
01-Jan-18 18:35 39.492592 -119.770529 253 4410ft 0kts
01-Jan-18 18:36 39.493695 -119.771527 0 4410ft 17kts
01-Jan-18 18:37 39.501566 -119.771535 358 4410ft 27kts
01-Jan-18 18:38 39.504379 -119.772777 355 4413ft 3kts
01-Jan-18 18:39 39.504425 -119.772782 355 4413ft 0kts
01-Jan-18 18:40 39.504425 -119.772782 355 4413ft 0kts

Navigation Log

Ident Type
Flight plan parsing failed, navigation log unavailable